Albion, Rhode Island
Current Conditions -  °F | °C
As of 3:55 AM on Friday 24 Oct 2014 (Local Time) from KSFZ Reporting Station
Overcast Overcast  
Wind Chill: 43°   Ceiling: 1600
Heat Index: 48°   Visibility: 10mi
Dew Point: 41°   Wind: 12mph
Humidity: 76%   Direction: 340°NNW
Pressure: 29.65"   Gusts: NA
Location:  41.95°N, 71.45°W
Report Text: KSFZ 240755Z 34010KT 10SM SCT008 OVC016 09/05 A2965 RMK AO1
Loading
Personal Weather Stations






























Interactive Weather Map
Tropical Storm Tracking
New forecast layout! Learn more

10-Day Weather Forecast

Advertisements
Track Severe Weather on mobile